Time;durP1;ratioP1;P1;durP2;ratioP2;P2;SDS_P1;SDS_P2;PMS_P1;PMS_P2;Temp;Humidity;BMP_temperature;BMP_pressure;BME280_temperature;BME280_humidity;BME280_pressure;Samples;Min_cycle;Max_cycle;Signal;HPM_P1;HPM_P2
2022/06/05 00:02:26;;;;;;;3.45;3.15;;;;;;;20.28;nan;100531.22;4986238;28;20321;-74
2022/06/05 00:05:24;;;;;;;4.00;3.60;;;;;;;20.31;nan;100528.13;4987334;28;20034;-73
2022/06/05 00:08:11;;;;;;;3.40;3.10;;;;;;;20.28;nan;100532.03;4988089;28;20057;-74
2022/06/05 00:10:58;;;;;;;3.80;3.50;;;;;;;20.31;nan;100523.59;4989864;28;20034;-74
2022/06/05 00:13:32;;;;;;;4.40;3.97;;;;;;;20.32;nan;100537.81;4970516;28;20030;-74
2022/06/05 00:15:58;;;;;;;4.20;3.65;;;;;;;20.41;nan;100520.41;4987238;28;20531;-74
2022/06/05 00:18:25;;;;;;;3.80;3.40;;;;;;;20.42;nan;100526.59;4968091;28;20439;-73
2022/06/05 00:20:53;;;;;;;3.22;2.90;;;;;;;20.44;nan;100533.41;4991254;28;20081;-73
2022/06/05 00:23:18;;;;;;;3.85;3.45;;;;;;;20.47;nan;100538.34;4969457;28;20088;-74
2022/06/05 00:25:57;;;;;;;4.07;3.67;;;;;;;20.59;nan;100549.25;4990077;28;20070;-73
2022/06/05 00:28:33;;;;;;;3.92;3.63;;;;;;;20.64;nan;100552.13;4988414;28;20054;-74
2022/06/05 00:31:16;;;;;;;3.72;3.25;;;;;;;20.63;nan;100555.03;4988610;28;20466;-74
2022/06/05 00:33:41;;;;;;;3.78;3.38;;;;;;;20.63;nan;100571.13;4979385;28;20046;-74
2022/06/05 00:36:18;;;;;;;4.25;3.85;;;;;;;20.59;nan;100584.16;4989917;28;20027;-74
2022/06/05 00:39:26;;;;;;;4.72;3.70;;;;;;;20.53;nan;100596.59;4984394;28;20519;-74
2022/06/05 00:42:04;;;;;;;3.42;3.13;;;;;;;20.50;nan;100598.91;4988013;28;20133;-74
2022/06/05 00:44:36;;;;;;;3.15;2.85;;;;;;;20.48;nan;100614.41;4986584;28;20033;-74
2022/06/05 00:47:03;;;;;;;3.42;2.72;;;;;;;20.46;nan;100617.28;4969297;28;20038;-74
2022/06/05 00:49:36;;;;;;;3.85;2.70;;;;;;;20.45;nan;100610.28;4986384;28;20121;-74
2022/06/05 00:52:03;;;;;;;3.53;3.05;;;;;;;20.46;nan;100609.22;4987427;28;20177;-74
2022/06/05 00:54:28;;;;;;;3.60;3.00;;;;;;;20.46;nan;100606.53;4987644;28;20038;-74
2022/06/05 00:56:53;;;;;;;3.28;2.97;;;;;;;20.47;nan;100600.13;4987942;28;20406;-73
2022/06/05 00:59:20;;;;;;;3.50;3.20;;;;;;;20.46;nan;100598.47;4988394;28;20048;-74
2022/06/05 01:01:48;;;;;;;3.38;2.80;;;;;;;20.44;nan;100594.38;4988612;28;20034;-74
2022/06/05 01:04:15;;;;;;;2.85;2.60;;;;;;;20.40;nan;100591.28;4987748;28;20424;-74
2022/06/05 01:06:40;;;;;;;3.17;2.88;;;;;;;20.34;nan;100594.84;4988740;28;20042;-73
2022/06/05 01:09:05;;;;;;;2.88;2.60;;;;;;;20.28;nan;100601.88;4988279;28;20042;-74
2022/06/05 01:11:38;;;;;;;3.95;3.20;;;;;;;20.24;nan;100589.09;4987938;28;20125;-74
2022/06/05 01:14:18;;;;;;;3.72;3.30;;;;;;;20.23;nan;100572.16;4986517;28;20872;-74
2022/06/05 01:17:24;;;;;;;4.20;3.80;;;;;;;20.25;nan;100562.03;4985949;28;20042;-74
2022/06/05 01:20:06;;;;;;;3.67;3.38;;;;;;;20.28;nan;100550.03;4923563;28;20045;-73
2022/06/05 01:22:50;;;;;;;4.63;4.22;;;;;;;20.29;nan;100533.72;4984556;28;20129;-74
2022/06/05 01:25:34;;;;;;;4.03;3.55;;;;;;;20.32;nan;100522.53;4984742;28;20034;-73
2022/06/05 01:28:07;;;;;;;5.05;4.55;;;;;;;19.95;nan;100510.78;4987813;28;20034;-74
2022/06/05 01:30:42;;;;;;;4.78;4.30;;;;;;;19.50;nan;100503.47;4986969;28;20500;-74
2022/06/05 01:33:15;;;;;;;4.72;4.22;;;;;;;19.31;nan;100489.09;4980003;28;20039;-74
2022/06/05 01:35:52;;;;;;;4.93;4.43;;;;;;;19.14;nan;100477.19;4988560;28;20412;-74
2022/06/05 01:38:36;;;;;;;5.60;4.60;;;;;;;19.03;nan;100461.72;4987263;28;20305;-74
2022/06/05 01:41:09;;;;;;;5.65;5.07;;;;;;;18.94;nan;100450.41;4982264;28;20046;-74
2022/06/05 01:43:40;;;;;;;5.30;4.57;;;;;;;18.88;nan;100452.06;4986312;28;20112;-74
2022/06/05 01:46:11;;;;;;;5.68;5.07;;;;;;;18.86;nan;100434.56;4985391;28;20528;-74
2022/06/05 01:48:59;;;;;;;7.13;5.32;;;;;;;18.77;nan;100406.34;4987328;28;20034;-74
2022/06/05 01:51:40;;;;;;;6.40;4.90;;;;;;;18.69;nan;100399.31;4987518;28;20031;-74
2022/06/05 01:54:11;;;;;;;8.18;5.15;;;;;;;18.65;nan;100414.13;4987052;28;20042;-74
2022/06/05 01:56:41;;;;;;;5.85;5.35;;;;;;;18.61;nan;100431.66;4986088;28;20030;-75
2022/06/05 01:59:13;;;;;;;5.80;5.30;;;;;;;18.56;nan;100428.78;4987475;28;20109;-74
2022/06/05 02:01:45;;;;;;;5.05;4.57;;;;;;;18.47;nan;100425.47;4989383;28;20104;-73
2022/06/05 02:04:39;;;;;;;5.43;4.60;;;;;;;18.42;nan;100415.41;4991137;28;20101;-74
2022/06/05 02:07:14;;;;;;;6.00;4.70;;;;;;;18.40;nan;100393.38;4957289;28;20035;-75
2022/06/05 02:09:50;;;;;;;4.65;4.25;;;;;;;18.38;nan;100386.56;4991106;28;20056;-74
2022/06/05 02:12:15;;;;;;;4.75;4.25;;;;;;;18.36;nan;100375.25;4990543;28;20069;-74
2022/06/05 02:14:42;;;;;;;4.70;4.30;;;;;;;18.34;nan;100359.38;4989584;28;20059;-74
2022/06/05 02:17:09;;;;;;;4.25;3.85;;;;;;;18.49;nan;100350.28;4990971;28;20034;-74
2022/06/05 02:19:35;;;;;;;4.75;4.32;;;;;;;18.60;nan;100330.94;4991292;28;20451;-74
2022/06/05 02:22:09;;;;;;;4.35;3.95;;;;;;;18.69;nan;100316.28;4990810;28;20046;-74
2022/06/05 02:24:34;;;;;;;4.80;4.30;;;;;;;18.83;nan;100306.34;4990412;28;20054;-74
2022/06/05 02:27:03;;;;;;;5.05;4.55;;;;;;;19.02;nan;100292.09;4990570;28;20523;-74
2022/06/05 02:29:28;;;;;;;4.68;4.28;;;;;;;19.17;nan;100278.41;4991166;28;20026;-75
2022/06/05 02:32:24;;;;;;;4.95;4.32;;;;;;;19.25;nan;100259.38;4989729;28;20033;-75
2022/06/05 02:35:13;;;;;;;6.13;4.40;;;;;;;19.30;nan;100232.72;4992165;28;20035;-75
2022/06/05 02:37:58;;;;;;;5.35;4.50;;;;;;;19.36;nan;100200.75;4990274;28;20039;-74
2022/06/05 02:40:51;;;;;;;5.43;4.78;;;;;;;19.41;nan;100182.16;4988851;28;20035;-74
2022/06/05 02:43:41;;;;;;;5.30;4.32;;;;;;;19.42;nan;100165.00;4972760;28;20046;-74
2022/06/05 02:46:29;;;;;;;6.22;5.05;;;;;;;19.51;nan;100167.19;4991495;28;20117;-75
2022/06/05 02:49:08;;;;;;;10.45;5.38;;;;;;;19.61;nan;100174.75;4992632;28;20046;-74
2022/06/05 02:51:38;;;;;;;7.50;5.80;;;;;;;19.64;nan;100168.97;4990635;28;20034;-74
2022/06/05 02:54:03;;;;;;;6.43;5.40;;;;;;;19.79;nan;100154.41;4988465;28;20035;-74
2022/06/05 02:56:31;;;;;;;6.60;5.65;;;;;;;19.85;nan;100140.09;4968099;28;20095;-73
2022/06/05 02:58:58;;;;;;;7.90;5.32;;;;;;;19.94;nan;100161.03;4990402;28;20137;-74
2022/06/05 03:04:09;;;;;;;6.15;5.22;;;;;;;20.09;nan;100133.00;4990051;28;20112;-73
2022/06/05 03:06:37;;;;;;;6.07;5.47;;;;;;;20.10;nan;100132.81;4990283;28;20034;-73
2022/06/05 03:09:04;;;;;;;6.03;5.32;;;;;;;20.15;nan;100146.38;4990017;28;20062;-74
2022/06/05 03:11:29;;;;;;;5.40;4.88;;;;;;;20.18;nan;100150.47;4994118;28;20539;-73
2022/06/05 03:13:57;;;;;;;7.47;5.68;;;;;;;20.27;nan;100137.56;4989083;28;20126;-73
2022/06/05 03:16:22;;;;;;;5.97;5.03;;;;;;;20.36;nan;100142.41;4971584;28;20118;-74
2022/06/05 03:18:47;;;;;;;5.28;4.78;;;;;;;20.44;nan;100141.28;4991087;28;20113;-74
2022/06/05 03:21:13;;;;;;;5.88;5.18;;;;;;;20.49;nan;100141.41;4990471;28;20141;-73
2022/06/05 03:23:38;;;;;;;5.15;4.65;;;;;;;20.51;nan;100158.13;4990365;28;20044;-74
2022/06/05 03:26:03;;;;;;;6.13;5.05;;;;;;;20.52;nan;100185.78;4990181;28;20450;-73
2022/06/05 03:28:29;;;;;;;6.10;5.50;;;;;;;20.56;nan;100208.53;4990257;28;20554;-74
2022/06/05 03:30:54;;;;;;;5.55;4.90;;;;;;;20.64;nan;100215.44;4990297;28;20058;-73
2022/06/05 03:33:19;;;;;;;5.80;5.20;;;;;;;20.68;nan;100232.75;4988270;28;20027;-73
2022/06/05 03:35:46;;;;;;;5.10;4.60;;;;;;;20.70;nan;100244.94;4991719;28;20145;-73
2022/06/05 03:38:13;;;;;;;5.25;4.75;;;;;;;20.70;nan;100271.78;4988331;28;20035;-73
2022/06/05 03:40:43;;;;;;;5.47;4.40;;;;;;;20.73;nan;100290.13;4990511;28;20048;-73
2022/06/05 03:43:09;;;;;;;5.13;4.63;;;;;;;20.73;nan;100308.94;4989819;28;20510;-73
2022/06/05 03:45:34;;;;;;;6.10;4.50;;;;;;;20.78;nan;100324.41;4988182;28;20042;-74
2022/06/05 03:47:59;;;;;;;6.18;4.47;;;;;;;20.78;nan;100341.38;4986169;28;20038;-73
2022/06/05 03:50:25;;;;;;;4.85;4.43;;;;;;;20.69;nan;100361.50;4988566;28;20550;-73
2022/06/05 03:52:51;;;;;;;5.68;4.53;;;;;;;20.67;nan;100378.91;4989046;28;20077;-73
2022/06/05 03:55:19;;;;;;;4.47;4.07;;;;;;;20.66;nan;100382.63;4989324;28;20034;-73
2022/06/05 03:57:45;;;;;;;4.30;3.90;;;;;;;20.54;nan;100394.06;4993193;28;20117;-73
2022/06/05 04:00:12;;;;;;;4.40;4.00;;;;;;;20.41;nan;100418.34;4987692;28;20128;-73
2022/06/05 04:02:38;;;;;;;4.15;3.75;;;;;;;20.32;nan;100436.59;4969935;28;20141;-73
2022/06/05 04:05:04;;;;;;;5.90;4.50;;;;;;;20.33;nan;100457.06;4988641;28;20164;-73
2022/06/05 04:07:30;;;;;;;4.40;4.00;;;;;;;20.37;nan;100489.66;4988761;28;20067;-72
2022/06/05 04:09:55;;;;;;;4.97;4.30;;;;;;;20.20;nan;100493.91;4988598;28;20054;-73
2022/06/05 04:12:21;;;;;;;4.55;4.15;;;;;;;20.04;nan;100492.53;4988776;28;20073;-73
2022/06/05 04:14:46;;;;;;;6.00;5.10;;;;;;;19.83;nan;100499.88;4973002;28;20030;-73
2022/06/05 04:17:11;;;;;;;5.20;4.70;;;;;;;19.53;nan;100500.38;4988222;28;20041;-73
2022/06/05 04:19:38;;;;;;;5.78;5.10;;;;;;;19.31;nan;100509.72;4989889;28;20045;-74
2022/06/05 04:22:04;;;;;;;7.88;5.90;;;;;;;19.15;nan;100510.16;4987550;28;20636;-74
2022/06/05 04:24:29;;;;;;;7.68;5.90;;;;;;;19.04;nan;100523.16;4985624;28;20038;-73
2022/06/05 04:26:55;;;;;;;6.30;5.70;;;;;;;18.92;nan;100526.66;4990064;28;20038;-74
2022/06/05 04:29:20;;;;;;;7.47;6.70;;;;;;;18.81;nan;100525.44;4988414;28;20038;-74
2022/06/05 04:31:47;;;;;;;8.43;5.78;;;;;;;18.74;nan;100514.69;4987498;28;20043;-74
2022/06/05 04:34:16;;;;;;;6.43;5.82;;;;;;;18.67;nan;100508.50;4990221;28;20034;-74
2022/06/05 04:36:43;;;;;;;6.82;6.22;;;;;;;18.61;nan;100504.78;4991592;28;20037;-74
2022/06/05 04:39:08;;;;;;;8.10;6.30;;;;;;;18.55;nan;100494.91;4989306;28;20519;-73
2022/06/05 04:41:34;;;;;;;7.75;6.93;;;;;;;18.44;nan;100477.56;4988293;28;20042;-73
2022/06/05 04:43:59;;;;;;;8.00;6.75;;;;;;;18.38;nan;100469.56;4988279;28;20093;-74
2022/06/05 04:46:26;;;;;;;7.72;6.95;;;;;;;18.31;nan;100471.41;4990693;28;20241;-73
2022/06/05 04:48:52;;;;;;;9.43;6.90;;;;;;;18.23;nan;100465.22;4984592;28;20562;-74
2022/06/05 04:51:19;;;;;;;7.72;6.80;;;;;;;18.17;nan;100468.69;4987300;28;20034;-74
2022/06/05 04:53:45;;;;;;;7.00;6.30;;;;;;;18.09;nan;100466.22;4985806;28;20038;-74
2022/06/05 04:56:14;;;;;;;8.05;7.22;;;;;;;18.06;nan;100461.25;4989303;28;20542;-74
2022/06/05 04:58:40;;;;;;;8.15;6.72;;;;;;;18.06;nan;100452.41;4988232;28;20061;-74
2022/06/05 05:01:20;;;;;;;6.75;6.15;;;;;;;17.99;nan;100439.81;4987231;28;20400;-74
2022/06/05 05:03:47;;;;;;;7.28;6.53;;;;;;;17.95;nan;100424.41;4987528;28;20482;-74
2022/06/05 05:06:13;;;;;;;6.18;5.57;;;;;;;17.94;nan;100425.41;4984385;28;20031;-75
2022/06/05 05:08:38;;;;;;;4.82;4.32;;;;;;;17.97;nan;100446.41;4987715;28;20448;-74
2022/06/05 05:11:04;;;;;;;4.65;4.18;;;;;;;18.00;nan;100462.91;4991367;28;20042;-75
2022/06/05 05:13:30;;;;;;;6.55;5.75;;;;;;;18.01;nan;100479.75;4988443;28;20045;-75
2022/06/05 05:15:55;;;;;;;6.45;5.28;;;;;;;18.02;nan;100474.22;4987842;28;20038;-75
2022/06/05 05:18:22;;;;;;;6.25;5.65;;;;;;;17.99;nan;100477.28;4986397;28;20102;-75
2022/06/05 05:20:47;;;;;;;7.60;6.90;;;;;;;17.94;nan;100458.34;4987961;28;20050;-75
2022/06/05 05:23:13;;;;;;;7.78;6.97;;;;;;;17.92;nan;100427.47;4987142;28;20599;-75
2022/06/05 05:25:38;;;;;;;9.05;8.15;;;;;;;17.87;nan;100398.66;4989831;28;20040;-75
2022/06/05 05:28:06;;;;;;;8.90;8.00;;;;;;;17.83;nan;100357.31;4986900;28;20041;-74
2022/06/05 05:30:32;;;;;;;7.07;6.38;;;;;;;17.90;nan;100341.25;4985078;28;20908;-74
2022/06/05 05:32:58;;;;;;;6.68;5.97;;;;;;;17.88;nan;100360.19;4984455;28;20105;-74
2022/06/05 05:35:23;;;;;;;8.65;7.60;;;;;;;17.85;nan;100379.28;4987044;28;20046;-74
2022/06/05 05:37:48;;;;;;;7.15;6.35;;;;;;;17.81;nan;100365.53;4988045;28;20439;-74
2022/06/05 05:42:58;;;;;;;6.75;5.85;;;;;;;17.89;nan;100332.41;4985763;28;20292;-74
2022/06/05 05:45:23;;;;;;;8.23;6.88;;;;;;;17.88;nan;100313.91;4987224;28;20026;-74
2022/06/05 05:47:49;;;;;;;7.40;6.70;;;;;;;17.80;nan;100301.50;4986913;28;20468;-75
2022/06/05 05:50:15;;;;;;;6.72;5.93;;;;;;;17.79;nan;100291.84;4984709;28;20411;-74
2022/06/05 05:52:42;;;;;;;7.43;6.25;;;;;;;18.03;nan;100275.19;4988243;28;20582;-74
2022/06/05 05:55:19;;;;;;;7.95;6.03;;;;;;;18.18;nan;100284.84;4988334;28;20121;-75
2022/06/05 05:57:47;;;;;;;6.55;5.95;;;;;;;18.23;nan;100287.72;4987784;28;20034;-74
2022/06/05 06:00:15;;;;;;;6.38;5.68;;;;;;;18.28;nan;100289.78;4986374;28;20034;-74
2022/06/05 06:02:41;;;;;;;6.20;5.70;;;;;;;18.33;nan;100293.50;4987179;28;20064;-75
2022/06/05 06:05:09;;;;;;;5.65;5.10;;;;;;;18.42;nan;100305.63;4986806;28;20030;-74
2022/06/05 06:07:34;;;;;;;6.25;5.13;;;;;;;18.43;nan;100309.13;4986693;28;21454;-74
2022/06/05 06:09:59;;;;;;;6.75;5.20;;;;;;;18.46;nan;100311.38;4987765;28;20149;-74
2022/06/05 06:12:25;;;;;;;6.45;5.10;;;;;;;18.43;nan;100315.28;4966908;28;20519;-74
2022/06/05 06:14:52;;;;;;;7.40;5.78;;;;;;;18.45;nan;100304.38;4986159;28;20404;-74
2022/06/05 06:17:18;;;;;;;5.40;4.90;;;;;;;18.50;nan;100293.06;4987213;28;20038;-74
2022/06/05 06:19:43;;;;;;;5.78;5.28;;;;;;;18.50;nan;100279.66;4987674;28;20042;-74
2022/06/05 06:22:09;;;;;;;6.82;6.13;;;;;;;18.51;nan;100274.09;4986726;28;20066;-74
2022/06/05 06:24:34;;;;;;;5.88;5.28;;;;;;;18.54;nan;100270.16;4987100;28;21778;-74
2022/06/05 06:26:59;;;;;;;8.05;6.30;;;;;;;18.60;nan;100267.47;4989593;28;20527;-74
2022/06/05 06:29:25;;;;;;;5.78;5.18;;;;;;;18.65;nan;100280.22;4986091;28;20034;-74
2022/06/05 06:31:50;;;;;;;5.78;5.28;;;;;;;18.66;nan;100277.34;4987970;28;20030;-74
2022/06/05 06:34:16;;;;;;;5.35;4.85;;;;;;;18.64;nan;100274.06;4987042;28;20038;-74
2022/06/05 06:36:41;;;;;;;4.47;4.07;;;;;;;18.72;nan;100285.56;4988440;28;20036;-74
2022/06/05 06:39:07;;;;;;;3.75;3.45;;;;;;;18.84;nan;100281.22;4988336;28;20126;-74
2022/06/05 06:41:33;;;;;;;4.05;3.65;;;;;;;18.88;nan;100277.09;4986772;28;20535;-74
2022/06/05 06:43:58;;;;;;;3.88;3.47;;;;;;;18.92;nan;100290.88;4987606;28;20411;-73
2022/06/05 06:46:24;;;;;;;4.30;3.83;;;;;;;18.96;nan;100292.09;4989222;28;20126;-74
2022/06/05 06:48:49;;;;;;;4.10;3.67;;;;;;;19.03;nan;100304.44;4992859;28;20034;-74
2022/06/05 06:51:16;;;;;;;4.45;3.47;;;;;;;19.07;nan;100299.50;4990205;28;20511;-74
2022/06/05 06:53:42;;;;;;;6.28;3.90;;;;;;;19.04;nan;100278.44;4991244;28;20117;-75
2022/06/05 06:56:20;;;;;;;4.38;3.97;;;;;;;18.93;nan;100269.25;4990164;28;20041;-74
2022/06/05 06:58:46;;;;;;;4.53;3.65;;;;;;;19.08;nan;100248.34;4970232;28;20049;-74
2022/06/05 07:01:12;;;;;;;4.00;3.60;;;;;;;19.21;nan;100239.41;4990653;28;20113;-75
2022/06/05 07:03:38;;;;;;;3.60;3.30;;;;;;;19.41;nan;100238.47;4989072;28;20053;-74
2022/06/05 07:06:06;;;;;;;4.35;3.10;;;;;;;19.46;nan;100239.44;4991317;28;20404;-74
2022/06/05 07:08:31;;;;;;;3.22;2.92;;;;;;;19.56;nan;100232.78;4989633;28;20097;-74
2022/06/05 07:10:56;;;;;;;2.67;2.47;;;;;;;19.60;nan;100229.44;4990934;28;20038;-74
2022/06/05 07:13:22;;;;;;;3.42;3.13;;;;;;;19.66;nan;100238.47;4987540;28;20046;-74
2022/06/05 07:15:47;;;;;;;3.20;2.90;;;;;;;19.71;nan;100239.50;4974970;28;20459;-74
2022/06/05 07:18:13;;;;;;;3.60;3.30;;;;;;;19.70;nan;100243.22;4990031;28;20038;-74
2022/06/05 07:20:41;;;;;;;3.90;3.47;;;;;;;19.80;nan;100249.94;4989678;28;20105;-75
2022/06/05 07:23:07;;;;;;;4.55;4.15;;;;;;;19.94;nan;100246.09;4990268;28;20293;-74
2022/06/05 07:25:33;;;;;;;3.63;3.33;;;;;;;20.11;nan;100257.09;4988903;28;20077;-74
2022/06/05 07:27:59;;;;;;;3.70;3.30;;;;;;;20.23;nan;100257.19;4991234;28;20129;-74
2022/06/05 07:30:25;;;;;;;4.47;3.95;;;;;;;20.35;nan;100274.22;4989034;28;20046;-74
2022/06/05 07:32:51;;;;;;;3.40;3.10;;;;;;;20.40;nan;100270.84;4989053;28;20530;-74
2022/06/05 07:35:17;;;;;;;3.35;2.95;;;;;;;20.44;nan;100267.50;4991211;28;20566;-74
2022/06/05 07:37:42;;;;;;;4.30;3.90;;;;;;;20.49;nan;100259.59;4990238;28;20030;-74
2022/06/05 07:40:09;;;;;;;3.28;2.97;;;;;;;20.53;nan;100239.31;4990350;28;20034;-74
2022/06/05 07:42:38;;;;;;;3.55;3.25;;;;;;;20.57;nan;100240.53;4971833;28;20043;-74
2022/06/05 07:45:05;;;;;;;3.35;3.05;;;;;;;20.64;nan;100223.50;4987196;28;20042;-74
2022/06/05 07:47:31;;;;;;;3.30;3.00;;;;;;;20.70;nan;100206.50;4990127;28;20507;-74
2022/06/05 07:49:56;;;;;;;3.42;3.13;;;;;;;20.74;nan;100191.56;4987345;28;20042;-74
2022/06/05 07:55:05;;;;;;;4.55;3.78;;;;;;;20.86;nan;100179.00;4993720;28;20077;-74
2022/06/05 07:57:31;;;;;;;6.28;4.20;;;;;;;20.83;nan;100179.44;4987923;28;20125;-74
2022/06/05 07:59:56;;;;;;;3.78;3.47;;;;;;;20.92;nan;100172.69;4989354;28;20046;-74
2022/06/05 08:02:27;;;;;;;5.35;3.88;;;;;;;20.98;nan;100168.28;4988003;28;20023;-74
2022/06/05 08:04:54;;;;;;;3.65;3.20;;;;;;;21.03;nan;100162.22;4993816;28;20026;-74
2022/06/05 08:07:22;;;;;;;4.18;3.55;;;;;;;21.05;nan;100160.94;4987729;28;20046;-74
2022/06/05 08:09:48;;;;;;;3.25;2.95;;;;;;;21.17;nan;100167.16;4988957;28;20041;-74
2022/06/05 08:12:18;;;;;;;3.30;3.00;;;;;;;21.26;nan;100173.03;4987755;28;20522;-74
2022/06/05 08:14:44;;;;;;;3.20;2.90;;;;;;;21.32;nan;100179.34;4987870;28;20073;-74
2022/06/05 08:17:12;;;;;;;4.18;3.78;;;;;;;21.33;nan;100173.75;4963972;28;20034;-74
2022/06/05 08:19:39;;;;;;;3.63;3.33;;;;;;;21.31;nan;100181.22;4986812;28;20563;-74
2022/06/05 08:22:06;;;;;;;4.43;3.20;;;;;;;21.32;nan;100182.84;4988227;28;20060;-74
2022/06/05 08:24:31;;;;;;;3.00;2.70;;;;;;;21.39;nan;100188.13;4988259;28;20037;-74
2022/06/05 08:26:57;;;;;;;3.00;2.70;;;;;;;21.49;nan;100183.03;4988840;28;20038;-74
2022/06/05 08:29:22;;;;;;;3.30;2.90;;;;;;;21.48;nan;100185.97;4988625;28;20285;-74
2022/06/05 08:31:47;;;;;;;3.90;3.28;;;;;;;21.46;nan;100180.81;4988242;28;20046;-74
2022/06/05 08:34:14;;;;;;;3.30;2.75;;;;;;;21.49;nan;100180.34;4988058;28;20133;-74
2022/06/05 08:36:40;;;;;;;3.85;3.22;;;;;;;21.45;nan;100192.59;4988705;28;20027;-74
2022/06/05 08:42:16;;;;;;;4.22;3.55;;;;;;;21.52;nan;100205.97;4995869;28;20507;-74
2022/06/05 08:44:46;;;;;;;6.25;4.35;;;;;;;21.38;nan;100208.00;4986784;28;20027;-74
2022/06/05 08:47:20;;;;;;;3.92;3.50;;;;;;;21.30;nan;100209.16;4980460;28;20042;-74
2022/06/05 08:50:03;;;;;;;4.45;3.85;;;;;;;21.28;nan;100192.44;5002705;28;20526;-74
2022/06/05 08:52:55;;;;;;;3.95;3.55;;;;;;;21.36;nan;100192.09;4992580;28;20043;-74
2022/06/05 08:55:38;;;;;;;3.85;3.33;;;;;;;21.39;nan;100194.34;4996890;28;20126;-74
2022/06/05 08:58:09;;;;;;;3.60;3.25;;;;;;;21.52;nan;100203.25;4985188;28;20038;-74
2022/06/05 09:00:45;;;;;;;4.22;3.75;;;;;;;21.69;nan;100214.16;4987043;28;20467;-74
2022/06/05 09:03:19;;;;;;;4.28;3.88;;;;;;;21.73;nan;100220.72;4984405;28;20035;-74
2022/06/05 09:05:50;;;;;;;5.22;4.22;;;;;;;21.91;nan;100228.69;4985185;28;20519;-75
2022/06/05 09:08:18;;;;;;;4.00;3.58;;;;;;;22.14;nan;100229.72;4984592;28;20492;-74
2022/06/05 09:10:45;;;;;;;4.03;3.63;;;;;;;22.29;nan;100229.31;4987644;28;20037;-74
2022/06/05 09:13:29;;;;;;;4.97;4.47;;;;;;;22.47;nan;100248.81;4988306;28;20177;-74
2022/06/05 09:15:59;;;;;;;4.72;4.28;;;;;;;22.65;nan;100255.94;4986054;28;20042;-74
2022/06/05 09:18:35;;;;;;;4.45;3.88;;;;;;;23.02;nan;100252.91;4986571;28;21532;-74
2022/06/05 09:21:06;;;;;;;5.40;4.90;;;;;;;23.24;nan;100261.16;4967148;28;20057;-75
2022/06/05 09:23:40;;;;;;;;;;;;;;;23.42;nan;100268.19;4987464;28;20049;-74
2022/06/05 09:26:13;;;;;;;5.45;4.95;;;;;;;23.83;nan;100276.19;4986894;28;19924;-74
2022/06/05 09:28:45;;;;;;;5.68;4.88;;;;;;;24.40;nan;100267.84;4987599;28;20057;-74
2022/06/05 09:31:22;;;;;;;4.50;4.10;;;;;;;25.01;nan;100268.66;4988553;28;20941;-74
2022/06/05 09:33:51;;;;;;;4.72;4.32;;;;;;;25.66;nan;100270.66;4985032;28;20038;-74
2022/06/05 09:36:20;;;;;;;7.13;5.15;;;;;;;26.14;nan;100272.38;4991167;28;20030;-75
2022/06/05 09:38:57;;;;;;;5.55;5.00;;;;;;;26.30;nan;100277.91;4990493;28;20038;-74
2022/06/05 09:41:31;;;;;;;6.40;5.22;;;;;;;26.37;nan;100278.50;4986691;28;20034;-75
2022/06/05 09:44:18;;;;;;;7.00;6.25;;;;;;;26.15;nan;100278.59;4987041;28;20049;-74
2022/06/05 09:47:00;;;;;;;8.68;7.13;;;;;;;25.89;nan;100270.31;4986083;28;20510;-74
2022/06/05 09:49:58;;;;;;;6.88;5.82;;;;;;;25.89;nan;100275.75;4988084;28;20503;-74
2022/06/05 09:52:26;;;;;;;5.95;5.00;;;;;;;26.29;nan;100263.53;4986230;28;20056;-74
2022/06/05 09:55:24;;;;;;;5.65;4.90;;;;;;;26.82;nan;100250.78;4987397;28;20042;-74
2022/06/05 09:58:24;;;;;;;5.05;4.20;;;;;;;27.57;nan;100241.44;4973220;28;20539;-74
2022/06/05 10:00:53;;;;;;;5.43;4.57;;;;;;;28.56;nan;100234.47;4985965;28;20038;-75
2022/06/05 10:03:21;;;;;;;4.43;3.53;;;;;;;29.53;nan;100226.78;4989781;28;20546;-75
2022/06/05 10:06:19;;;;;;;5.95;4.53;;;;;;;28.92;nan;100237.00;4996880;28;20033;-74
2022/06/05 10:08:50;;;;;;;5.72;3.58;;;;;;;28.87;nan;100241.69;4957608;28;20101;-75
2022/06/05 10:11:38;;;;;;;;;;;;;;;28.94;nan;100237.53;4999117;28;20451;-75
2022/06/05 10:14:20;;;;;;;3.90;3.42;;;;;;;29.91;nan;100232.47;4988785;28;19918;-75
2022/06/05 10:16:56;;;;;;;3.50;2.80;;;;;;;31.14;nan;100220.88;4987669;28;20053;-75
2022/06/05 10:19:33;;;;;;;4.68;3.00;;;;;;;32.45;nan;100230.91;4981992;28;20052;-75
2022/06/05 10:22:12;;;;;;;2.63;2.20;;;;;;;33.71;nan;100236.53;4984296;28;20562;-75
2022/06/05 10:24:51;;;;;;;4.38;3.67;;;;;;;35.17;nan;100230.97;4989610;28;20034;-75
2022/06/05 10:27:18;;;;;;;2.88;2.55;;;;;;;36.16;nan;100230.13;4990118;28;20041;-75
2022/06/05 10:29:50;;;;;;;5.05;2.60;;;;;;;36.68;nan;100234.53;4990439;28;20121;-75
2022/06/05 10:32:34;;;;;;;3.63;2.47;;;;;;;36.04;nan;100228.03;4988242;28;20043;-75
2022/06/05 10:35:13;;;;;;;3.50;2.70;;;;;;;35.09;nan;100234.53;4991331;28;20125;-75
2022/06/05 10:37:47;;;;;;;3.95;2.95;;;;;;;34.75;nan;100232.56;4990555;28;20357;-75
2022/06/05 10:40:21;;;;;;;3.72;3.00;;;;;;;35.74;nan;100227.19;4990499;28;20049;-75
2022/06/05 10:42:55;;;;;;;4.90;3.15;;;;;;;35.62;nan;100232.56;4990972;28;20053;-75
2022/06/05 10:45:39;;;;;;;3.63;2.90;;;;;;;35.71;nan;100233.34;4991057;28;20607;-75
2022/06/05 10:48:25;;;;;;;2.50;2.30;;;;;;;37.32;nan;100236.13;4992075;28;20277;-76
2022/06/05 10:51:03;;;;;;;3.13;2.17;;;;;;;37.78;nan;100223.16;4993022;28;20046;-75
2022/06/05 10:53:44;;;;;;;2.90;2.40;;;;;;;37.09;nan;100224.66;4990543;28;20033;-75
2022/06/05 10:56:34;;;;;;;2.80;2.38;;;;;;;36.87;nan;100228.56;4988591;28;20276;-75
2022/06/05 10:59:17;;;;;;;3.33;2.80;;;;;;;38.23;nan;100228.66;4991032;28;20031;-75
2022/06/05 11:01:48;;;;;;;5.18;2.53;;;;;;;37.72;nan;100232.81;4990065;28;20058;-75
2022/06/05 11:04:22;;;;;;;2.85;1.77;;;;;;;37.54;nan;100232.19;4981841;28;20031;-75
2022/06/05 11:07:00;;;;;;;3.78;2.08;;;;;;;35.73;nan;100226.38;4991016;28;20142;-75
2022/06/05 11:09:41;;;;;;;3.72;2.97;;;;;;;35.75;nan;100223.28;4996066;28;20034;-76
2022/06/05 11:15:09;;;;;;;;;;;;;;;32.50;nan;100228.06;4993158;28;20126;-75
2022/06/05 11:17:35;;;;;;;3.40;2.67;;;;;;;31.67;nan;100223.31;4993075;28;20343;-74
2022/06/05 11:20:09;;;;;;;3.47;2.73;;;;;;;31.11;nan;100226.94;4972824;28;20464;-75
2022/06/05 11:22:37;;;;;;;4.15;2.90;;;;;;;30.25;nan;100216.88;4992147;28;20050;-74
2022/06/05 11:25:31;;;;;;;4.88;3.60;;;;;;;29.35;nan;100229.13;4992185;28;20042;-74
2022/06/05 11:28:15;;;;;;;7.20;3.30;;;;;;;29.16;nan;100230.91;4989841;28;20052;-74
2022/06/05 11:31:02;;;;;;;4.70;3.75;;;;;;;28.79;nan;100249.34;4992281;28;20038;-73
2022/06/05 11:33:31;;;;;;;3.20;2.80;;;;;;;28.64;nan;100229.53;4985343;28;20429;-73
2022/06/05 11:36:09;;;;;;;6.05;3.58;;;;;;;28.31;nan;100226.38;4975872;28;20098;-73
2022/06/05 11:38:46;;;;;;;4.57;4.10;;;;;;;28.12;nan;100243.28;4992227;28;20036;-74
2022/06/05 11:41:22;;;;;;;5.50;3.58;;;;;;;28.11;nan;100211.75;4989753;28;20030;-73
2022/06/05 11:43:56;;;;;;;4.43;3.50;;;;;;;28.26;nan;100212.81;4986182;28;20038;-73
2022/06/05 11:46:29;;;;;;;4.30;3.90;;;;;;;28.19;nan;100220.44;4981833;28;20066;-73
2022/06/05 11:49:13;;;;;;;7.03;4.38;;;;;;;27.77;nan;100211.53;4982462;28;20096;-73
2022/06/05 11:52:05;;;;;;;3.85;3.45;;;;;;;27.75;nan;100203.66;4984911;28;20030;-74
2022/06/05 11:55:01;;;;;;;3.70;3.30;;;;;;;27.74;nan;100201.19;4990085;28;20892;-73
2022/06/05 11:57:39;;;;;;;2.85;2.50;;;;;;;28.18;nan;100176.13;4984654;28;20769;-73
2022/06/05 12:00:14;;;;;;;3.55;2.88;;;;;;;29.10;nan;100167.47;4981350;28;20424;-74
2022/06/05 12:03:13;;;;;;;3.38;3.05;;;;;;;30.54;nan;100166.84;4986616;28;20496;-74
2022/06/05 12:05:53;;;;;;;4.45;3.90;;;;;;;29.84;nan;100167.38;4983146;28;20038;-74
2022/06/05 12:08:23;;;;;;;4.30;3.50;;;;;;;29.42;nan;100175.13;4989997;28;20128;-73
2022/06/05 12:11:05;;;;;;;5.75;4.38;;;;;;;29.22;nan;100169.84;4974097;28;20030;-73
2022/06/05 12:13:49;;;;;;;5.00;4.50;;;;;;;28.83;nan;100165.22;4991429;28;20557;-73
2022/06/05 12:16:27;;;;;;;4.35;3.90;;;;;;;28.41;nan;100154.81;4988775;28;20100;-73
2022/06/05 12:19:03;;;;;;;4.50;4.00;;;;;;;28.03;nan;100149.81;4987244;28;20041;-73